Time;durP1;ratioP1;P1;durP2;ratioP2;P2;SDS_P1;SDS_P2;PMS_P1;PMS_P2;Temp;Humidity;BMP_temperature;BMP_pressure;BME280_temperature;BME280_humidity;BME280_pressure;Samples;Min_cycle;Max_cycle;Signal;HPM_P1;HPM_P2
2024/01/14 00:01:38;;;;;;;;;66.75;51.25;;;;;;;;5036324;28;28632;-76
2024/01/14 00:04:04;;;;;;;;;74.50;54.75;;;;;;;;5033787;28;28525;-76
2024/01/14 00:06:30;;;;;;;;;73.50;52.75;;;;;;;;5027652;28;28715;-76
2024/01/14 00:08:55;;;;;;;;;73.25;53.50;;;;;;;;5032566;28;29074;-75
2024/01/14 00:11:20;;;;;;;;;76.25;57.25;;;;;;;;5036134;28;29243;-74
2024/01/14 00:13:46;;;;;;;;;73.50;54.00;;;;;;;;5032039;28;28609;-73
2024/01/14 00:16:11;;;;;;;;;71.50;51.50;;;;;;;;5038139;28;28577;-75
2024/01/14 00:18:36;;;;;;;;;66.75;50.75;;;;;;;;5031733;28;29091;-75
2024/01/14 00:21:03;;;;;;;;;70.50;51.00;;;;;;;;5028708;28;28814;-75
2024/01/14 00:23:28;;;;;;;;;77.75;57.00;;;;;;;;5037067;28;28558;-75
2024/01/14 00:25:53;;;;;;;;;78.50;56.25;;;;;;;;5029175;28;28452;-75
2024/01/14 00:28:19;;;;;;;;;81.25;58.00;;;;;;;;5034923;28;28404;-76
2024/01/14 00:30:44;;;;;;;;;76.25;56.00;;;;;;;;5034456;28;29620;-76
2024/01/14 00:33:09;;;;;;;;;72.00;57.50;;;;;;;;5032162;28;29093;-74
2024/01/14 00:35:35;;;;;;;;;70.00;51.25;;;;;;;;5045610;28;28505;-73
2024/01/14 00:38:02;;;;;;;;;71.00;52.50;;;;;;;;5040424;28;28583;-74
2024/01/14 00:40:27;;;;;;;;;70.50;53.50;;;;;;;;5029145;28;30636;-75
2024/01/14 00:42:55;;;;;;;;;68.50;48.25;;;;;;;;5033573;28;28861;-75
2024/01/14 00:45:20;;;;;;;;;69.75;49.25;;;;;;;;5028969;28;28426;-76
2024/01/14 00:47:45;;;;;;;;;74.25;55.00;;;;;;;;5028956;28;28590;-75
2024/01/14 00:50:10;;;;;;;;;74.25;53.25;;;;;;;;5018059;28;29521;-75
2024/01/14 00:52:35;;;;;;;;;72.00;53.00;;;;;;;;5031675;28;28550;-74
2024/01/14 00:55:01;;;;;;;;;73.75;53.75;;;;;;;;5041922;28;28537;-74
2024/01/14 00:57:26;;;;;;;;;73.25;50.75;;;;;;;;5039139;28;28501;-75
2024/01/14 00:59:51;;;;;;;;;72.50;49.25;;;;;;;;5040131;28;29123;-74
2024/01/14 01:02:16;;;;;;;;;79.00;54.25;;;;;;;;5030062;28;28962;-74
2024/01/14 01:04:41;;;;;;;;;71.25;52.75;;;;;;;;5028632;28;28474;-75
2024/01/14 01:07:07;;;;;;;;;73.00;50.50;;;;;;;;5027870;28;30808;-74
2024/01/14 01:09:32;;;;;;;;;70.00;53.75;;;;;;;;5026900;28;29884;-75
2024/01/14 01:11:57;;;;;;;;;71.75;50.75;;;;;;;;5028334;28;28744;-76
2024/01/14 01:14:22;;;;;;;;;65.75;48.25;;;;;;;;5040453;28;28963;-74
2024/01/14 01:16:48;;;;;;;;;71.50;53.00;;;;;;;;5039867;28;28569;-74
2024/01/14 01:19:13;;;;;;;;;71.25;52.00;;;;;;;;5035156;28;29588;-74
2024/01/14 01:21:38;;;;;;;;;67.50;48.00;;;;;;;;5026899;28;28435;-75
2024/01/14 01:24:03;;;;;;;;;73.50;54.25;;;;;;;;5027171;28;28398;-74
2024/01/14 01:26:29;;;;;;;;;66.00;51.75;;;;;;;;5030172;28;28560;-74
2024/01/14 01:28:54;;;;;;;;;73.25;52.75;;;;;;;;5027195;28;29598;-75
2024/01/14 01:31:19;;;;;;;;;71.00;52.75;;;;;;;;5027126;28;28852;-75
2024/01/14 01:33:44;;;;;;;;;64.25;50.50;;;;;;;;5024970;28;28512;-75
2024/01/14 01:36:10;;;;;;;;;66.00;53.00;;;;;;;;5041294;28;28532;-74
2024/01/14 01:38:35;;;;;;;;;71.50;52.75;;;;;;;;5034808;28;28888;-75
2024/01/14 01:41:00;;;;;;;;;71.50;52.25;;;;;;;;5027800;28;28437;-75
2024/01/14 01:43:25;;;;;;;;;70.75;50.75;;;;;;;;5042916;28;28792;-74
2024/01/14 01:45:55;;;;;;;;;74.00;50.00;;;;;;;;5036201;28;28837;-75
2024/01/14 01:48:21;;;;;;;;;65.25;51.00;;;;;;;;5043912;28;28952;-75
2024/01/14 01:50:47;;;;;;;;;70.25;54.00;;;;;;;;5022943;28;28620;-75
2024/01/14 01:53:12;;;;;;;;;58.50;48.00;;;;;;;;5025063;28;28977;-74
2024/01/14 01:55:38;;;;;;;;;66.00;49.50;;;;;;;;5047149;28;30681;-74
2024/01/14 01:58:04;;;;;;;;;70.50;53.75;;;;;;;;5026228;28;29687;-76
2024/01/14 02:00:30;;;;;;;;;66.00;50.00;;;;;;;;5026798;28;28652;-77
2024/01/14 02:02:55;;;;;;;;;72.50;52.25;;;;;;;;5035498;28;28426;-76
2024/01/14 02:05:20;;;;;;;;;78.00;51.75;;;;;;;;5023976;28;28608;-75
2024/01/14 02:07:45;;;;;;;;;72.75;51.25;;;;;;;;5037774;28;29227;-75
2024/01/14 02:10:11;;;;;;;;;65.75;48.00;;;;;;;;5036879;28;28679;-75
2024/01/14 02:12:36;;;;;;;;;66.50;49.50;;;;;;;;5029532;28;28584;-73
2024/01/14 02:15:01;;;;;;;;;72.25;51.00;;;;;;;;5038276;28;28755;-75
2024/01/14 02:17:26;;;;;;;;;59.25;44.25;;;;;;;;5036007;28;30541;-73
2024/01/14 02:19:52;;;;;;;;;64.75;42.50;;;;;;;;5027877;28;28926;-74
2024/01/14 02:22:37;;;;;;;;;62.25;44.25;;;;;;;;5036223;28;28502;-74
2024/01/14 02:25:03;;;;;;;;;66.00;47.50;;;;;;;;5023221;28;28742;-74
2024/01/14 02:27:29;;;;;;;;;69.50;51.25;;;;;;;;5025710;28;28787;-76
2024/01/14 02:29:56;;;;;;;;;70.75;50.00;;;;;;;;5027390;28;28525;-75
2024/01/14 02:32:21;;;;;;;;;69.75;48.25;;;;;;;;5039983;28;28537;-76
2024/01/14 02:34:47;;;;;;;;;69.75;49.75;;;;;;;;5027434;28;29216;-75
2024/01/14 02:37:12;;;;;;;;;73.25;53.25;;;;;;;;5029103;28;29731;-74
2024/01/14 02:39:38;;;;;;;;;68.00;47.75;;;;;;;;5029525;28;28586;-75
2024/01/14 02:42:03;;;;;;;;;61.25;47.50;;;;;;;;5037766;28;28862;-74
2024/01/14 02:44:28;;;;;;;;;62.50;46.75;;;;;;;;5033343;28;29157;-75
2024/01/14 02:46:53;;;;;;;;;62.00;46.25;;;;;;;;5037820;28;30393;-74
2024/01/14 02:49:18;;;;;;;;;69.50;50.75;;;;;;;;5035024;28;28558;-76
2024/01/14 02:51:45;;;;;;;;;64.25;46.75;;;;;;;;5041283;28;28508;-75
2024/01/14 02:54:10;;;;;;;;;67.00;48.00;;;;;;;;5040182;28;28556;-75
2024/01/14 02:56:36;;;;;;;;;58.50;46.25;;;;;;;;5028949;28;29891;-74
2024/01/14 02:59:01;;;;;;;;;67.50;48.25;;;;;;;;5020014;28;28509;-73
2024/01/14 03:01:26;;;;;;;;;62.50;43.50;;;;;;;;5025844;28;28615;-74
2024/01/14 03:03:52;;;;;;;;;62.00;46.25;;;;;;;;5025037;28;30430;-74
2024/01/14 03:06:17;;;;;;;;;60.00;45.25;;;;;;;;5032455;28;28568;-75
2024/01/14 03:08:42;;;;;;;;;68.25;47.00;;;;;;;;5028439;28;28824;-75
2024/01/14 03:11:08;;;;;;;;;66.25;50.00;;;;;;;;5031759;28;28646;-74
2024/01/14 03:13:33;;;;;;;;;60.25;48.00;;;;;;;;5029272;28;28526;-74
2024/01/14 03:15:58;;;;;;;;;64.50;47.50;;;;;;;;5034755;28;28515;-75
2024/01/14 03:18:23;;;;;;;;;65.00;49.50;;;;;;;;5034221;28;28694;-74
2024/01/14 03:20:48;;;;;;;;;66.00;49.25;;;;;;;;5033691;28;28600;-74
2024/01/14 03:23:14;;;;;;;;;65.25;49.50;;;;;;;;5032608;28;28554;-73
2024/01/14 03:25:39;;;;;;;;;73.25;50.00;;;;;;;;5041141;28;31236;-74
2024/01/14 03:28:04;;;;;;;;;67.25;46.50;;;;;;;;5028674;28;28430;-74
2024/01/14 03:30:30;;;;;;;;;68.00;47.00;;;;;;;;5026686;28;28916;-73
2024/01/14 03:32:55;;;;;;;;;69.00;48.50;;;;;;;;5029213;28;28944;-74
2024/01/14 03:35:20;;;;;;;;;62.25;45.50;;;;;;;;5031833;28;28587;-73
2024/01/14 03:37:45;;;;;;;;;67.50;48.00;;;;;;;;5029183;28;28727;-71
2024/01/14 03:40:11;;;;;;;;;49.75;38.25;;;;;;;;5032777;28;28439;-73
2024/01/14 03:42:36;;;;;;;;;60.00;47.75;;;;;;;;5028620;28;28799;-74
2024/01/14 03:45:02;;;;;;;;;66.25;47.50;;;;;;;;5030735;28;30463;-74
2024/01/14 03:47:27;;;;;;;;;61.00;46.25;;;;;;;;5032546;28;28896;-73
2024/01/14 03:49:52;;;;;;;;;61.75;46.00;;;;;;;;5030332;28;29041;-74
2024/01/14 03:52:17;;;;;;;;;65.75;50.00;;;;;;;;5032562;28;29388;-74
2024/01/14 03:54:43;;;;;;;;;67.25;45.75;;;;;;;;5032254;28;29177;-72
2024/01/14 03:57:08;;;;;;;;;68.00;49.50;;;;;;;;5039689;28;28413;-73
2024/01/14 03:59:33;;;;;;;;;63.25;45.50;;;;;;;;5026549;28;28595;-73
2024/01/14 04:01:58;;;;;;;;;57.75;37.75;;;;;;;;5028374;28;29667;-74
2024/01/14 04:04:24;;;;;;;;;63.75;48.25;;;;;;;;5026346;28;29159;-73
2024/01/14 04:06:49;;;;;;;;;64.00;47.25;;;;;;;;5029500;28;28526;-73
2024/01/14 04:09:14;;;;;;;;;65.25;47.50;;;;;;;;5029605;28;29145;-73
2024/01/14 04:11:39;;;;;;;;;67.25;45.25;;;;;;;;5027942;28;29062;-73
2024/01/14 04:14:05;;;;;;;;;63.25;47.50;;;;;;;;5035551;28;28576;-75
2024/01/14 04:16:37;;;;;;;;;61.50;45.75;;;;;;;;5027961;28;28873;-72
2024/01/14 04:19:02;;;;;;;;;62.75;46.00;;;;;;;;5028126;28;28478;-74
2024/01/14 04:21:28;;;;;;;;;65.25;46.25;;;;;;;;5023551;28;30335;-73
2024/01/14 04:23:53;;;;;;;;;63.75;46.25;;;;;;;;5029717;28;28503;-72
2024/01/14 04:26:20;;;;;;;;;66.25;49.50;;;;;;;;5024912;28;28928;-71
2024/01/14 04:28:45;;;;;;;;;67.25;47.50;;;;;;;;5033880;28;28982;-73
2024/01/14 04:31:10;;;;;;;;;65.00;47.00;;;;;;;;5028781;28;29569;-72
2024/01/14 04:33:36;;;;;;;;;64.25;48.00;;;;;;;;5030769;28;29705;-72
2024/01/14 04:36:01;;;;;;;;;63.25;49.75;;;;;;;;5027670;28;28479;-72
2024/01/14 04:38:26;;;;;;;;;59.00;42.25;;;;;;;;5032215;28;28658;-73
2024/01/14 04:40:52;;;;;;;;;66.00;45.50;;;;;;;;5025156;28;28684;-73
2024/01/14 04:43:18;;;;;;;;;62.50;45.25;;;;;;;;5027173;28;29071;-74
2024/01/14 04:45:43;;;;;;;;;58.50;40.75;;;;;;;;5026019;28;28512;-73
2024/01/14 04:48:08;;;;;;;;;65.25;47.25;;;;;;;;5016961;28;28893;-73
2024/01/14 04:50:34;;;;;;;;;67.25;43.50;;;;;;;;5033134;28;29205;-74
2024/01/14 04:52:59;;;;;;;;;61.50;45.00;;;;;;;;5036477;28;29069;-72
2024/01/14 04:55:24;;;;;;;;;62.25;46.00;;;;;;;;5031047;28;28876;-73
2024/01/14 04:57:50;;;;;;;;;63.75;45.00;;;;;;;;5034730;28;29083;-73
2024/01/14 05:00:15;;;;;;;;;62.25;46.75;;;;;;;;5035023;28;28608;-73
2024/01/14 05:02:40;;;;;;;;;70.50;49.75;;;;;;;;5023136;28;29428;-73
2024/01/14 05:05:05;;;;;;;;;66.25;48.50;;;;;;;;5032000;28;28522;-74
2024/01/14 05:07:31;;;;;;;;;60.75;47.50;;;;;;;;5032653;28;28431;-74
2024/01/14 05:09:56;;;;;;;;;64.00;49.25;;;;;;;;5022283;28;28705;-73
2024/01/14 05:12:22;;;;;;;;;60.25;45.25;;;;;;;;5046707;28;29582;-74
2024/01/14 05:14:47;;;;;;;;;57.25;44.25;;;;;;;;5025585;28;28556;-75
2024/01/14 05:17:12;;;;;;;;;58.75;44.25;;;;;;;;5022615;28;28442;-75
2024/01/14 05:19:41;;;;;;;;;60.25;47.00;;;;;;;;5020453;28;30024;-75
2024/01/14 05:22:06;;;;;;;;;64.25;47.25;;;;;;;;5019173;28;28564;-74
2024/01/14 05:24:31;;;;;;;;;64.25;47.50;;;;;;;;5027827;28;28531;-76
2024/01/14 05:26:57;;;;;;;;;55.00;39.00;;;;;;;;5027274;28;28449;-74
2024/01/14 05:29:22;;;;;;;;;50.75;38.50;;;;;;;;5026313;28;29010;-74
2024/01/14 05:31:47;;;;;;;;;61.75;46.50;;;;;;;;5024057;28;28762;-73
2024/01/14 05:34:13;;;;;;;;;67.00;48.25;;;;;;;;5019408;28;28630;-75
2024/01/14 05:36:38;;;;;;;;;62.00;46.50;;;;;;;;5032388;28;28442;-76
2024/01/14 05:39:04;;;;;;;;;58.50;44.75;;;;;;;;5021965;28;28585;-75
2024/01/14 05:41:30;;;;;;;;;64.00;46.50;;;;;;;;5017286;28;28955;-74
2024/01/14 05:43:55;;;;;;;;;65.50;45.00;;;;;;;;5024985;28;28583;-74
2024/01/14 05:46:20;;;;;;;;;56.75;42.25;;;;;;;;5025252;28;28466;-73
2024/01/14 05:48:45;;;;;;;;;65.25;44.25;;;;;;;;5021887;28;28522;-73
2024/01/14 05:51:10;;;;;;;;;59.50;45.75;;;;;;;;5025343;28;28675;-73
2024/01/14 05:53:36;;;;;;;;;58.25;43.00;;;;;;;;5022325;28;28687;-72
2024/01/14 05:56:02;;;;;;;;;63.75;47.25;;;;;;;;5029131;28;28634;-73
2024/01/14 05:58:28;;;;;;;;;63.00;50.00;;;;;;;;5027817;28;28888;-75
2024/01/14 06:00:53;;;;;;;;;69.00;46.00;;;;;;;;5029006;28;29432;-74
2024/01/14 06:03:18;;;;;;;;;67.50;45.25;;;;;;;;5027471;28;28530;-73
2024/01/14 06:05:44;;;;;;;;;53.50;41.50;;;;;;;;5031095;28;28469;-74
2024/01/14 06:08:09;;;;;;;;;70.50;48.50;;;;;;;;5018658;28;29531;-74
2024/01/14 06:10:34;;;;;;;;;66.00;49.00;;;;;;;;5031175;28;28516;-74
2024/01/14 06:12:59;;;;;;;;;65.75;45.75;;;;;;;;5035191;28;29795;-74
2024/01/14 06:15:24;;;;;;;;;60.00;46.00;;;;;;;;5033068;28;28454;-73
2024/01/14 06:17:50;;;;;;;;;57.00;39.75;;;;;;;;5039790;28;29708;-73
2024/01/14 06:20:15;;;;;;;;;68.75;48.50;;;;;;;;5025288;28;28650;-75
2024/01/14 06:22:41;;;;;;;;;62.75;46.75;;;;;;;;5026984;28;28889;-73
2024/01/14 06:25:07;;;;;;;;;68.25;48.00;;;;;;;;5017719;28;28513;-73
2024/01/14 06:27:32;;;;;;;;;55.75;42.00;;;;;;;;5018491;28;29048;-75
2024/01/14 06:29:58;;;;;;;;;63.00;45.00;;;;;;;;5020053;28;30055;-74
2024/01/14 06:32:23;;;;;;;;;59.75;44.25;;;;;;;;5014871;28;29008;-75
2024/01/14 06:34:48;;;;;;;;;59.75;42.00;;;;;;;;5014655;28;28515;-74
2024/01/14 06:37:13;;;;;;;;;58.50;45.00;;;;;;;;5016651;28;28754;-75
2024/01/14 06:39:38;;;;;;;;;65.00;46.25;;;;;;;;5008537;28;28630;-74
2024/01/14 06:42:04;;;;;;;;;60.00;43.75;;;;;;;;5023378;28;28778;-75
2024/01/14 06:44:29;;;;;;;;;66.50;47.25;;;;;;;;5032413;28;28829;-76
2024/01/14 06:46:54;;;;;;;;;61.25;46.00;;;;;;;;5019172;28;29122;-75
2024/01/14 06:49:19;;;;;;;;;70.00;49.00;;;;;;;;5025381;28;29008;-72
2024/01/14 06:51:45;;;;;;;;;68.50;51.00;;;;;;;;5015621;28;28869;-73
2024/01/14 06:54:11;;;;;;;;;69.25;50.50;;;;;;;;5022702;28;28768;-74
2024/01/14 06:56:43;;;;;;;;;63.75;46.75;;;;;;;;5016615;28;28791;-73
2024/01/14 06:59:18;;;;;;;;;68.00;48.75;;;;;;;;5018756;28;28638;-73
2024/01/14 07:01:43;;;;;;;;;65.00;49.75;;;;;;;;5037013;28;28708;-74
2024/01/14 07:04:08;;;;;;;;;53.50;41.00;;;;;;;;5020945;28;28617;-73
2024/01/14 07:06:33;;;;;;;;;61.00;47.00;;;;;;;;5025244;28;28535;-75
2024/01/14 07:08:59;;;;;;;;;67.75;48.50;;;;;;;;5018127;28;31357;-71
2024/01/14 07:11:24;;;;;;;;;67.25;49.75;;;;;;;;5015905;28;28403;-72
2024/01/14 07:13:49;;;;;;;;;65.25;47.50;;;;;;;;5028878;28;28781;-73
2024/01/14 07:16:15;;;;;;;;;67.25;50.75;;;;;;;;5029079;28;28964;-73
2024/01/14 07:18:40;;;;;;;;;65.50;49.25;;;;;;;;5022775;28;28708;-74
2024/01/14 07:21:08;;;;;;;;;60.00;42.75;;;;;;;;5033125;28;27986;-73
2024/01/14 07:23:33;;;;;;;;;62.25;48.25;;;;;;;;5021233;28;28505;-74
2024/01/14 07:25:59;;;;;;;;;61.50;46.25;;;;;;;;5010194;28;29455;-74
2024/01/14 07:28:24;;;;;;;;;66.50;49.00;;;;;;;;5029582;28;28528;-74
2024/01/14 07:30:50;;;;;;;;;54.75;42.25;;;;;;;;5025939;28;28746;-73
2024/01/14 07:33:15;;;;;;;;;56.25;46.25;;;;;;;;5025098;28;28489;-75
2024/01/14 07:35:40;;;;;;;;;63.25;47.50;;;;;;;;5029638;28;28581;-71
2024/01/14 07:38:06;;;;;;;;;62.75;45.00;;;;;;;;5023729;28;28580;-73
2024/01/14 07:40:31;;;;;;;;;59.75;46.25;;;;;;;;5025148;28;29747;-75
2024/01/14 07:42:56;;;;;;;;;63.00;45.00;;;;;;;;5025788;28;28906;-73
2024/01/14 07:45:21;;;;;;;;;79.75;52.00;;;;;;;;5022252;28;28628;-73
2024/01/14 07:47:46;;;;;;;;;74.25;55.50;;;;;;;;5031261;28;28524;-72
2024/01/14 07:50:12;;;;;;;;;63.25;47.25;;;;;;;;5015282;28;28987;-74
2024/01/14 07:52:37;;;;;;;;;58.75;43.00;;;;;;;;5025539;28;28890;-72
2024/01/14 07:55:02;;;;;;;;;62.50;46.00;;;;;;;;5025702;28;28593;-74
2024/01/14 07:57:28;;;;;;;;;65.00;48.50;;;;;;;;5028097;28;28513;-73
2024/01/14 07:59:53;;;;;;;;;69.50;42.25;;;;;;;;5021699;28;28882;-73
2024/01/14 08:02:18;;;;;;;;;59.00;45.00;;;;;;;;5023946;28;30169;-73
2024/01/14 08:04:44;;;;;;;;;70.00;52.00;;;;;;;;5031846;28;28822;-73
2024/01/14 08:07:10;;;;;;;;;70.00;48.00;;;;;;;;5032607;28;28928;-73
2024/01/14 08:09:35;;;;;;;;;78.75;54.25;;;;;;;;5037756;28;28952;-74
2024/01/14 08:12:00;;;;;;;;;79.75;58.75;;;;;;;;5022591;28;28828;-72
2024/01/14 08:14:25;;;;;;;;;64.00;49.25;;;;;;;;5042596;28;30508;-73
2024/01/14 08:16:54;;;;;;;;;66.75;47.25;;;;;;;;5025148;28;30324;-76
2024/01/14 08:19:19;;;;;;;;;61.00;47.00;;;;;;;;5021893;28;29703;-74
2024/01/14 08:21:44;;;;;;;;;63.25;46.50;;;;;;;;5016899;28;28833;-73
2024/01/14 08:24:10;;;;;;;;;59.75;44.25;;;;;;;;5026042;28;29260;-77
2024/01/14 08:26:43;;;;;;;;;62.25;46.00;;;;;;;;5023858;28;30001;-76
2024/01/14 08:29:09;;;;;;;;;62.25;41.50;;;;;;;;5036290;28;28521;-74
2024/01/14 08:31:43;;;;;;;;;57.25;42.50;;;;;;;;5039085;28;28559;-75
2024/01/14 08:34:08;;;;;;;;;58.00;42.75;;;;;;;;5025999;28;28630;-76
2024/01/14 08:36:34;;;;;;;;;66.50;47.25;;;;;;;;5029748;28;30267;-82
2024/01/14 08:38:59;;;;;;;;;68.50;47.50;;;;;;;;5028488;28;29031;-84
2024/01/14 08:41:26;;;;;;;;;62.75;43.25;;;;;;;;5029268;28;28475;-84
2024/01/14 08:43:51;;;;;;;;;59.00;44.25;;;;;;;;5032858;28;28853;-83
2024/01/14 08:46:17;;;;;;;;;62.25;45.00;;;;;;;;5040218;28;28613;-82
2024/01/14 08:48:45;;;;;;;;;60.25;44.25;;;;;;;;5030783;28;29494;-80
2024/01/14 08:51:12;;;;;;;;;54.50;43.25;;;;;;;;5026324;28;28587;-84
2024/01/14 08:53:37;;;;;;;;;62.00;44.75;;;;;;;;5029647;28;28658;-82
2024/01/14 08:56:03;;;;;;;;;66.75;44.75;;;;;;;;5039783;28;29129;-82
2024/01/14 08:58:34;;;;;;;;;67.50;44.25;;;;;;;;5044552;28;28874;-76
2024/01/14 09:00:59;;;;;;;;;65.50;45.00;;;;;;;;5026328;28;28694;-75
2024/01/14 09:03:24;;;;;;;;;69.50;50.00;;;;;;;;5028017;28;28688;-78
2024/01/14 09:05:49;;;;;;;;;66.00;48.25;;;;;;;;5027579;28;29824;-76
2024/01/14 09:08:15;;;;;;;;;65.25;48.00;;;;;;;;5041365;28;28723;-77
2024/01/14 09:10:40;;;;;;;;;65.25;48.00;;;;;;;;5038151;28;28596;-78
2024/01/14 09:13:05;;;;;;;;;62.50;48.00;;;;;;;;5030623;28;28906;-76
2024/01/14 09:15:30;;;;;;;;;67.25;51.00;;;;;;;;5037466;28;28651;-76
2024/01/14 09:17:56;;;;;;;;;67.75;51.00;;;;;;;;5024911;28;28565;-76
2024/01/14 09:20:21;;;;;;;;;63.00;44.25;;;;;;;;5030987;28;28580;-75
2024/01/14 09:22:47;;;;;;;;;69.25;52.00;;;;;;;;5022580;28;29219;-75
2024/01/14 09:25:12;;;;;;;;;64.25;50.50;;;;;;;;5019367;28;29611;-75
2024/01/14 09:28:24;;;;;;;;;;;;;;;;;;;;;
2024/01/14 09:31:28;;;;;;;;;;;;;;;;;;;;;
2024/01/14 09:33:56;;;;;;;;;60.00;47.50;;;;;;;;5013199;28;57359;-82
2024/01/14 09:36:22;;;;;;;;;73.75;50.00;;;;;;;;5007013;28;30202;-82
2024/01/14 09:38:47;;;;;;;;;65.75;50.75;;;;;;;;5010511;28;28515;-82
2024/01/14 09:41:23;;;;;;;;;66.50;49.50;;;;;;;;5002284;28;28463;-83
2024/01/14 09:43:49;;;;;;;;;76.75;51.75;;;;;;;;5000322;28;28574;-78
2024/01/14 09:46:16;;;;;;;;;73.25;52.50;;;;;;;;5006549;28;29025;-83
2024/01/14 09:48:42;;;;;;;;;67.50;50.00;;;;;;;;5012483;28;28616;-82
2024/01/14 09:51:08;;;;;;;;;78.25;55.00;;;;;;;;5026851;28;28530;-83
2024/01/14 09:53:34;;;;;;;;;76.75;53.00;;;;;;;;5012567;28;28629;-82
2024/01/14 09:56:00;;;;;;;;;68.00;51.00;;;;;;;;5006767;28;28561;-82
2024/01/14 09:58:26;;;;;;;;;78.00;53.50;;;;;;;;5003061;28;28714;-81
2024/01/14 10:00:54;;;;;;;;;65.00;48.75;;;;;;;;5010390;28;28728;-84
2024/01/14 10:03:19;;;;;;;;;68.50;51.75;;;;;;;;5019534;28;29422;-83
2024/01/14 10:05:45;;;;;;;;;65.50;49.00;;;;;;;;5014594;28;29263;-81
2024/01/14 10:08:10;;;;;;;;;69.50;49.00;;;;;;;;5014171;28;28286;-83
2024/01/14 10:10:36;;;;;;;;;71.00;50.50;;;;;;;;5009567;28;28938;-80
2024/01/14 10:13:05;;;;;;;;;73.50;51.75;;;;;;;;5003875;28;28799;-82
2024/01/14 10:15:31;;;;;;;;;66.25;49.25;;;;;;;;5006917;28;29575;-82
2024/01/14 10:17:56;;;;;;;;;65.00;50.00;;;;;;;;5008882;28;28817;-80
2024/01/14 10:20:21;;;;;;;;;73.00;52.75;;;;;;;;5021731;28;28358;-81
2024/01/14 10:22:47;;;;;;;;;74.50;53.00;;;;;;;;5007691;28;28399;-82
2024/01/14 10:25:12;;;;;;;;;64.25;46.75;;;;;;;;5004474;28;28453;-82
2024/01/14 10:27:37;;;;;;;;;63.25;48.75;;;;;;;;5024148;28;29482;-81
2024/01/14 10:30:04;;;;;;;;;72.75;51.00;;;;;;;;5026518;28;28759;-82
2024/01/14 10:32:31;;;;;;;;;71.25;50.50;;;;;;;;5044686;28;29894;-82
2024/01/14 10:34:56;;;;;;;;;69.00;51.75;;;;;;;;5029500;28;28621;-83
2024/01/14 10:37:26;;;;;;;;;70.00;51.00;;;;;;;;5032422;28;28520;-82
2024/01/14 10:39:53;;;;;;;;;59.50;48.75;;;;;;;;5026484;28;29161;-82
2024/01/14 10:42:18;;;;;;;;;68.25;48.25;;;;;;;;5029523;28;28701;-81
2024/01/14 10:44:43;;;;;;;;;68.25;49.75;;;;;;;;5026407;28;29708;-79
2024/01/14 10:47:10;;;;;;;;;73.00;54.50;;;;;;;;5028065;28;28592;-82
2024/01/14 10:49:37;;;;;;;;;68.50;50.25;;;;;;;;5036155;28;28583;-80
2024/01/14 10:52:12;;;;;;;;;71.75;50.00;;;;;;;;5032319;28;28682;-78
2024/01/14 10:54:47;;;;;;;;;71.00;50.00;;;;;;;;5020562;28;28529;-81
2024/01/14 10:57:12;;;;;;;;;73.50;50.00;;;;;;;;5022914;28;28590;-80
2024/01/14 10:59:38;;;;;;;;;70.00;52.25;;;;;;;;5025373;28;28493;-82
2024/01/14 11:02:05;;;;;;;;;70.25;51.75;;;;;;;;5023417;28;29204;-82
2024/01/14 11:04:32;;;;;;;;;64.50;50.00;;;;;;;;5015483;28;30815;-81
2024/01/14 11:06:57;;;;;;;;;69.25;48.25;;;;;;;;5037015;28;28764;-81
2024/01/14 11:09:22;;;;;;;;;64.00;48.25;;;;;;;;5023170;28;29148;-80
2024/01/14 11:11:55;;;;;;;;;73.25;53.25;;;;;;;;5021864;28;28768;-81
2024/01/14 11:14:47;;;;;;;;;70.75;52.25;;;;;;;;5025133;28;31709;-81
2024/01/14 11:17:18;;;;;;;;;65.75;47.00;;;;;;;;5017279;28;28609;-81
2024/01/14 11:19:45;;;;;;;;;68.50;51.25;;;;;;;;5042234;28;28837;-82
2024/01/14 11:22:20;;;;;;;;;65.00;44.75;;;;;;;;5024682;28;28871;-81
2024/01/14 11:24:46;;;;;;;;;65.50;47.75;;;;;;;;5022238;28;29001;-82
2024/01/14 11:27:12;;;;;;;;;63.75;45.75;;;;;;;;5023720;28;28656;-81
2024/01/14 11:29:39;;;;;;;;;65.25;47.75;;;;;;;;5021153;28;29305;-81
2024/01/14 11:32:04;;;;;;;;;65.75;46.50;;;;;;;;5030181;28;28551;-82
2024/01/14 11:34:49;;;;;;;;;70.75;51.00;;;;;;;;5026530;28;29222;-82
2024/01/14 11:37:29;;;;;;;;;67.00;50.25;;;;;;;;5028397;28;28369;-84
2024/01/14 11:40:07;;;;;;;;;66.50;49.75;;;;;;;;5028410;28;28837;-83
2024/01/14 11:42:35;;;;;;;;;67.75;46.50;;;;;;;;5033894;28;28593;-81
2024/01/14 11:45:01;;;;;;;;;65.75;49.25;;;;;;;;5040304;28;28898;-82
2024/01/14 11:47:36;;;;;;;;;60.00;46.00;;;;;;;;5037660;28;27859;-82
2024/01/14 11:50:02;;;;;;;;;67.75;49.75;;;;;;;;5019378;28;29081;-82
2024/01/14 11:52:28;;;;;;;;;63.75;47.00;;;;;;;;5031717;28;28885;-82
2024/01/14 11:54:54;;;;;;;;;68.25;50.75;;;;;;;;5034902;28;29203;-81
2024/01/14 11:57:23;;;;;;;;;72.25;54.75;;;;;;;;5038611;28;29901;-82
2024/01/14 11:59:48;;;;;;;;;59.25;46.50;;;;;;;;5040104;28;27942;-81
2024/01/14 12:02:17;;;;;;;;;66.50;48.25;;;;;;;;5047068;28;29491;-81
2024/01/14 12:04:43;;;;;;;;;74.50;49.25;;;;;;;;5054800;28;28488;-82
2024/01/14 12:07:08;;;;;;;;;61.00;46.75;;;;;;;;5029935;28;29058;-81
2024/01/14 12:09:33;;;;;;;;;67.25;48.00;;;;;;;;5054137;28;28516;-83
2024/01/14 12:12:03;;;;;;;;;60.75;46.75;;;;;;;;5054959;28;28779;-82
2024/01/14 12:14:29;;;;;;;;;68.25;51.25;;;;;;;;5053267;28;28691;-83
2024/01/14 12:16:56;;;;;;;;;69.00;51.25;;;;;;;;5036855;28;28667;-83
2024/01/14 12:19:21;;;;;;;;;66.25;48.00;;;;;;;;5045641;28;28666;-85
2024/01/14 12:21:47;;;;;;;;;63.75;46.25;;;;;;;;5036215;28;28881;-81
2024/01/14 12:24:12;;;;;;;;;52.00;38.75;;;;;;;;5039326;28;29170;-82
2024/01/14 12:26:37;;;;;;;;;67.00;49.00;;;;;;;;5041482;28;28899;-83
2024/01/14 12:29:04;;;;;;;;;62.25;46.50;;;;;;;;5028986;28;28883;-81
2024/01/14 12:31:49;;;;;;;;;56.25;47.75;;;;;;;;5029280;28;29433;-79
2024/01/14 12:34:15;;;;;;;;;62.50;47.25;;;;;;;;5027142;28;29903;-83
2024/01/14 12:36:40;;;;;;;;;59.00;44.25;;;;;;;;5037475;28;28623;-82
2024/01/14 12:39:06;;;;;;;;;63.50;45.50;;;;;;;;5029959;28;28197;-85
2024/01/14 12:41:31;;;;;;;;;54.25;39.25;;;;;;;;5030371;28;28575;-82
2024/01/14 12:43:57;;;;;;;;;61.50;44.50;;;;;;;;5027156;28;29406;-81
2024/01/14 12:46:22;;;;;;;;;60.50;47.75;;;;;;;;5027792;28;28620;-81
2024/01/14 12:48:48;;;;;;;;;65.00;48.75;;;;;;;;5036345;28;28846;-82
2024/01/14 12:51:17;;;;;;;;;55.00;44.50;;;;;;;;5028806;28;29154;-81
2024/01/14 12:53:42;;;;;;;;;60.50;44.00;;;;;;;;5026543;28;28537;-81
2024/01/14 12:56:09;;;;;;;;;62.25;48.00;;;;;;;;5032638;28;28509;-81
2024/01/14 12:58:35;;;;;;;;;63.00;49.00;;;;;;;;5028664;28;28493;-81
2024/01/14 13:01:01;;;;;;;;;58.25;46.00;;;;;;;;5031135;28;29033;-81
2024/01/14 13:03:26;;;;;;;;;55.00;42.50;;;;;;;;5027926;28;29191;-85
2024/01/14 13:05:51;;;;;;;;;52.00;40.50;;;;;;;;5025973;28;28840;-82
2024/01/14 13:08:17;;;;;;;;;55.25;43.00;;;;;;;;5029486;28;28528;-81
2024/01/14 13:10:42;;;;;;;;;59.25;45.75;;;;;;;;5031950;28;29182;-81
2024/01/14 13:13:08;;;;;;;;;81.50;55.00;;;;;;;;5026464;28;29547;-82
2024/01/14 13:15:33;;;;;;;;;60.25;44.00;;;;;;;;5027183;28;28461;-82
2024/01/14 13:18:00;;;;;;;;;65.00;48.50;;;;;;;;5029944;28;28794;-81
2024/01/14 13:20:25;;;;;;;;;62.25;46.25;;;;;;;;5027015;28;28451;-75
2024/01/14 13:22:50;;;;;;;;;64.50;45.00;;;;;;;;5019353;28;29614;-74
2024/01/14 13:25:15;;;;;;;;;67.25;47.75;;;;;;;;5021989;28;28960;-77
2024/01/14 13:27:41;;;;;;;;;70.00;51.50;;;;;;;;5021540;28;28484;-76
2024/01/14 13:30:08;;;;;;;;;59.00;46.00;;;;;;;;5023589;28;28836;-75
2024/01/14 13:32:36;;;;;;;;;73.75;52.50;;;;;;;;5032405;28;28494;-75
2024/01/14 13:35:01;;;;;;;;;85.75;66.75;;;;;;;;5015974;28;29179;-76
2024/01/14 13:37:27;;;;;;;;;62.00;44.50;;;;;;;;5032265;28;28603;-76
2024/01/14 13:39:53;;;;;;;;;59.75;45.25;;;;;;;;5028318;28;28627;-76
2024/01/14 13:42:18;;;;;;;;;61.25;44.00;;;;;;;;5018444;28;30036;-75
2024/01/14 13:44:43;;;;;;;;;57.25;42.75;;;;;;;;5027615;28;28617;-74
2024/01/14 13:47:08;;;;;;;;;58.75;46.50;;;;;;;;5031105;28;28966;-74
2024/01/14 13:49:34;;;;;;;;;61.50;45.75;;;;;;;;5024617;28;28460;-75
2024/01/14 13:51:59;;;;;;;;;57.75;42.50;;;;;;;;5026700;28;28625;-74
2024/01/14 13:54:25;;;;;;;;;57.00;45.25;;;;;;;;5027664;28;28490;-75
2024/01/14 13:56:54;;;;;;;;;54.75;41.50;;;;;;;;5035183;28;28711;-75
2024/01/14 13:59:20;;;;;;;;;161.33;128.33;;;;;;;;5023888;28;28521;-75
2024/01/14 14:01:45;;;;;;;;;68.00;52.75;;;;;;;;5025806;28;30540;-73
2024/01/14 14:04:10;;;;;;;;;141.33;108.67;;;;;;;;5028935;28;28886;-75
2024/01/14 14:06:36;;;;;;;;;61.00;47.00;;;;;;;;5027954;28;28716;-75
2024/01/14 14:09:01;;;;;;;;;65.50;46.25;;;;;;;;5034614;28;28984;-75
2024/01/14 14:11:27;;;;;;;;;62.50;42.75;;;;;;;;5027252;28;29488;-75
2024/01/14 14:13:52;;;;;;;;;59.25;43.75;;;;;;;;5026671;28;28527;-75